sensor_id;sensor_type;location;lat;lon;timestamp;pressure;altitude;pressure_sealevel;temperature;humidity
42591;BME280;28218;53.342;-6.216;2023-04-20T00:00:09;102580.03;;;10.48;100.00
42591;BME280;28218;53.342;-6.216;2023-04-20T00:02:38;102583.41;;;10.51;100.00
42591;BME280;28218;53.342;-6.216;2023-04-20T00:05:08;102583.41;;;10.51;100.00
42591;BME280;28218;53.342;-6.216;2023-04-20T00:07:37;102596.59;;;10.51;100.00
42591;BME280;28218;53.342;-6.216;2023-04-20T00:10:08;102607.13;;;10.51;100.00
42591;BME280;28218;53.342;-6.216;2023-04-20T00:12:36;102611.91;;;10.57;100.00
42591;BME280;28218;53.342;-6.216;2023-04-20T00:15:06;102612.88;;;10.44;100.00
42591;BME280;28218;53.342;-6.216;2023-04-20T00:17:35;102607.50;;;10.46;100.00
42591;BME280;28218;53.342;-6.216;2023-04-20T00:20:08;102613.81;;;10.43;100.00
42591;BME280;28218;53.342;-6.216;2023-04-20T00:22:36;102626.91;;;10.45;100.00
42591;BME280;28218;53.342;-6.216;2023-04-20T00:25:05;102626.53;;;10.49;100.00
42591;BME280;28218;53.342;-6.216;2023-04-20T00:27:34;102619.09;;;10.43;100.00
42591;BME280;28218;53.342;-6.216;2023-04-20T00:30:03;102627.25;;;10.40;100.00
42591;BME280;28218;53.342;-6.216;2023-04-20T00:32:31;102623.66;;;10.41;100.00
42591;BME280;28218;53.342;-6.216;2023-04-20T00:35:01;102626.28;;;10.41;100.00
42591;BME280;28218;53.342;-6.216;2023-04-20T00:37:29;102615.16;;;10.38;100.00
42591;BME280;28218;53.342;-6.216;2023-04-20T00:39:57;102618.00;;;10.35;100.00
42591;BME280;28218;53.342;-6.216;2023-04-20T00:42:26;102618.63;;;10.27;100.00
42591;BME280;28218;53.342;-6.216;2023-04-20T00:44:54;102616.00;;;10.27;100.00
42591;BME280;28218;53.342;-6.216;2023-04-20T00:47:22;102606.00;;;10.19;100.00
42591;BME280;28218;53.342;-6.216;2023-04-20T00:49:50;102618.13;;;10.22;100.00
42591;BME280;28218;53.342;-6.216;2023-04-20T00:52:21;102600.53;;;10.22;100.00
42591;BME280;28218;53.342;-6.216;2023-04-20T00:54:49;102601.84;;;10.17;100.00
42591;BME280;28218;53.342;-6.216;2023-04-20T00:57:18;102601.09;;;10.15;100.00
42591;BME280;28218;53.342;-6.216;2023-04-20T00:59:50;102594.03;;;10.15;100.00
42591;BME280;28218;53.342;-6.216;2023-04-20T01:02:18;102584.81;;;10.10;100.00
42591;BME280;28218;53.342;-6.216;2023-04-20T01:04:47;102580.28;;;10.12;100.00
42591;BME280;28218;53.342;-6.216;2023-04-20T01:07:16;102583.50;;;10.04;100.00
42591;BME280;28218;53.342;-6.216;2023-04-20T01:09:45;102582.94;;;10.12;100.00
42591;BME280;28218;53.342;-6.216;2023-04-20T01:12:14;102572.63;;;10.09;100.00
42591;BME280;28218;53.342;-6.216;2023-04-20T01:14:42;102579.06;;;10.05;100.00
42591;BME280;28218;53.342;-6.216;2023-04-20T01:17:10;102577.41;;;10.04;100.00
42591;BME280;28218;53.342;-6.216;2023-04-20T01:19:40;102590.56;;;10.04;100.00
42591;BME280;28218;53.342;-6.216;2023-04-20T01:22:14;102586.00;;;10.06;100.00
42591;BME280;28218;53.342;-6.216;2023-04-20T01:24:43;102592.72;;;9.98;100.00
42591;BME280;28218;53.342;-6.216;2023-04-20T01:27:12;102599.53;;;10.01;100.00
42591;BME280;28218;53.342;-6.216;2023-04-20T01:29:42;102596.69;;;10.04;100.00
42591;BME280;28218;53.342;-6.216;2023-04-20T01:32:11;102605.41;;;10.05;100.00
42591;BME280;28218;53.342;-6.216;2023-04-20T01:34:40;102605.06;;;9.98;100.00
42591;BME280;28218;53.342;-6.216;2023-04-20T01:37:08;102600.84;;;9.95;100.00
42591;BME280;28218;53.342;-6.216;2023-04-20T01:39:38;102606.97;;;9.96;100.00
42591;BME280;28218;53.342;-6.216;2023-04-20T01:42:07;102609.50;;;9.97;100.00
42591;BME280;28218;53.342;-6.216;2023-04-20T01:44:38;102608.41;;;10.00;100.00
42591;BME280;28218;53.342;-6.216;2023-04-20T01:47:06;102608.63;;;9.97;100.00
42591;BME280;28218;53.342;-6.216;2023-04-20T01:49:35;102603.72;;;9.92;100.00
42591;BME280;28218;53.342;-6.216;2023-04-20T01:52:03;102605.28;;;9.95;100.00
42591;BME280;28218;53.342;-6.216;2023-04-20T01:54:31;102604.69;;;9.91;100.00
42591;BME280;28218;53.342;-6.216;2023-04-20T01:57:01;102586.72;;;9.96;100.00
42591;BME280;28218;53.342;-6.216;2023-04-20T01:59:29;102574.75;;;9.92;100.00
42591;BME280;28218;53.342;-6.216;2023-04-20T02:01:57;102583.88;;;9.88;100.00
42591;BME280;28218;53.342;-6.216;2023-04-20T02:04:26;102574.53;;;9.84;100.00
42591;BME280;28218;53.342;-6.216;2023-04-20T02:06:54;102570.19;;;9.83;100.00
42591;BME280;28218;53.342;-6.216;2023-04-20T02:09:22;102570.19;;;9.83;100.00
42591;BME280;28218;53.342;-6.216;2023-04-20T02:11:51;102564.22;;;9.81;100.00
42591;BME280;28218;53.342;-6.216;2023-04-20T02:14:21;102557.50;;;9.77;100.00
42591;BME280;28218;53.342;-6.216;2023-04-20T02:16:49;102557.41;;;9.79;100.00
42591;BME280;28218;53.342;-6.216;2023-04-20T02:19:19;102552.25;;;9.77;100.00
42591;BME280;28218;53.342;-6.216;2023-04-20T02:21:47;102546.97;;;9.77;100.00
42591;BME280;28218;53.342;-6.216;2023-04-20T02:24:15;102549.88;;;9.74;100.00
42591;BME280;28218;53.342;-6.216;2023-04-20T02:26:44;102541.47;;;9.80;100.00
42591;BME280;28218;53.342;-6.216;2023-04-20T02:29:12;102548.41;;;9.81;100.00
42591;BME280;28218;53.342;-6.216;2023-04-20T02:31:42;102555.47;;;9.81;100.00
42591;BME280;28218;53.342;-6.216;2023-04-20T02:34:10;102552.72;;;9.82;100.00
42591;BME280;28218;53.342;-6.216;2023-04-20T02:36:38;102544.13;;;9.80;100.00
42591;BME280;28218;53.342;-6.216;2023-04-20T02:39:06;102557.50;;;9.77;100.00
42591;BME280;28218;53.342;-6.216;2023-04-20T02:41:35;102540.28;;;9.73;100.00
42591;BME280;28218;53.342;-6.216;2023-04-20T02:44:04;102541.97;;;9.74;100.00
42591;BME280;28218;53.342;-6.216;2023-04-20T02:46:32;102541.09;;;9.73;100.00
42591;BME280;28218;53.342;-6.216;2023-04-20T02:49:02;102535.97;;;9.72;100.00
42591;BME280;28218;53.342;-6.216;2023-04-20T02:51:30;102537.88;;;9.70;100.00
42591;BME280;28218;53.342;-6.216;2023-04-20T02:53:59;102547.59;;;9.69;100.00
42591;BME280;28218;53.342;-6.216;2023-04-20T02:56:27;102543.59;;;9.64;100.00
42591;BME280;28218;53.342;-6.216;2023-04-20T02:58:55;102544.81;;;9.60;100.00
42591;BME280;28218;53.342;-6.216;2023-04-20T03:01:23;102547.69;;;9.57;100.00
42591;BME280;28218;53.342;-6.216;2023-04-20T03:03:52;102544.31;;;9.55;100.00
42591;BME280;28218;53.342;-6.216;2023-04-20T03:06:22;102556.53;;;9.56;100.00
42591;BME280;28218;53.342;-6.216;2023-04-20T03:08:52;102557.97;;;9.60;100.00
42591;BME280;28218;53.342;-6.216;2023-04-20T03:11:20;102557.97;;;9.60;100.00
42591;BME280;28218;53.342;-6.216;2023-04-20T03:13:50;102563.47;;;9.57;100.00
42591;BME280;28218;53.342;-6.216;2023-04-20T03:16:18;102563.47;;;9.57;100.00
42591;BME280;28218;53.342;-6.216;2023-04-20T03:18:47;102574.69;;;9.59;100.00
42591;BME280;28218;53.342;-6.216;2023-04-20T03:21:15;102582.50;;;9.60;100.00
42591;BME280;28218;53.342;-6.216;2023-04-20T03:23:44;102579.88;;;9.60;100.00
42591;BME280;28218;53.342;-6.216;2023-04-20T03:26:13;102583.44;;;9.59;100.00
42591;BME280;28218;53.342;-6.216;2023-04-20T03:28:41;102580.22;;;9.56;100.00
42591;BME280;28218;53.342;-6.216;2023-04-20T03:31:09;102581.50;;;9.50;100.00
42591;BME280;28218;53.342;-6.216;2023-04-20T03:33:38;102576.84;;;9.54;100.00
42591;BME280;28218;53.342;-6.216;2023-04-20T03:36:06;102575.88;;;9.55;100.00
42591;BME280;28218;53.342;-6.216;2023-04-20T03:38:35;102574.47;;;9.51;100.00
42591;BME280;28218;53.342;-6.216;2023-04-20T03:41:05;102576.22;;;9.50;100.00
42591;BME280;28218;53.342;-6.216;2023-04-20T03:43:34;102576.34;;;9.48;100.00
42591;BME280;28218;53.342;-6.216;2023-04-20T03:46:02;102569.41;;;9.47;100.00
42591;BME280;28218;53.342;-6.216;2023-04-20T03:48:31;102571.31;;;9.45;100.00
42591;BME280;28218;53.342;-6.216;2023-04-20T03:50:59;102570.25;;;9.48;100.00
42591;BME280;28218;53.342;-6.216;2023-04-20T03:53:27;102568.69;;;9.45;100.00
42591;BME280;28218;53.342;-6.216;2023-04-20T03:55:56;102567.97;;;9.43;100.00
42591;BME280;28218;53.342;-6.216;2023-04-20T03:58:25;102564.63;;;9.41;100.00
42591;BME280;28218;53.342;-6.216;2023-04-20T04:01:00;102562.72;;;9.43;100.00
42591;BME280;28218;53.342;-6.216;2023-04-20T04:03:29;102541.66;;;9.43;100.00
42591;BME280;28218;53.342;-6.216;2023-04-20T04:05:57;102549.78;;;9.40;100.00
42591;BME280;28218;53.342;-6.216;2023-04-20T04:08:25;102546.91;;;9.43;100.00
42591;BME280;28218;53.342;-6.216;2023-04-20T04:10:54;102547.16;;;9.40;100.00
42591;BME280;28218;53.342;-6.216;2023-04-20T04:13:22;102537.34;;;9.42;100.00
42591;BME280;28218;53.342;-6.216;2023-04-20T04:15:51;102542.13;;;9.37;100.00
42591;BME280;28218;53.342;-6.216;2023-04-20T04:18:20;102545.09;;;9.33;100.00
42591;BME280;28218;53.342;-6.216;2023-04-20T04:20:49;102537.94;;;9.35;100.00
42591;BME280;28218;53.342;-6.216;2023-04-20T04:23:17;102543.44;;;9.32;100.00
42591;BME280;28218;53.342;-6.216;2023-04-20T04:25:45;102541.53;;;9.34;100.00
42591;BME280;28218;53.342;-6.216;2023-04-20T04:28:14;102540.56;;;9.35;100.00
42591;BME280;28218;53.342;-6.216;2023-04-20T04:30:42;102549.53;;;9.32;100.00
42591;BME280;28218;53.342;-6.216;2023-04-20T04:33:12;102545.94;;;9.33;100.00
42591;BME280;28218;53.342;-6.216;2023-04-20T04:35:40;102538.06;;;9.33;100.00
42591;BME280;28218;53.342;-6.216;2023-04-20T04:38:10;102533.97;;;9.29;100.00
42591;BME280;28218;53.342;-6.216;2023-04-20T04:40:40;102533.84;;;9.31;100.00
42591;BME280;28218;53.342;-6.216;2023-04-20T04:43:12;102535.03;;;9.27;100.00
42591;BME280;28218;53.342;-6.216;2023-04-20T04:45:40;102531.47;;;9.28;100.00
42591;BME280;28218;53.342;-6.216;2023-04-20T04:48:20;102539.56;;;9.25;100.00
42591;BME280;28218;53.342;-6.216;2023-04-20T04:50:49;102540.28;;;9.27;100.00
42591;BME280;28218;53.342;-6.216;2023-04-20T04:53:17;102545.66;;;9.25;100.00
42591;BME280;28218;53.342;-6.216;2023-04-20T04:55:45;102543.03;;;9.25;100.00
42591;BME280;28218;53.342;-6.216;2023-04-20T04:58:14;102542.34;;;9.23;100.00
42591;BME280;28218;53.342;-6.216;2023-04-20T05:00:42;102543.16;;;9.24;100.00
42591;BME280;28218;53.342;-6.216;2023-04-20T05:03:11;102532.66;;;9.24;100.00
42591;BME280;28218;53.342;-6.216;2023-04-20T05:05:42;102533.81;;;9.19;100.00
42591;BME280;28218;53.342;-6.216;2023-04-20T05:08:10;102538.13;;;9.20;100.00
42591;BME280;28218;53.342;-6.216;2023-04-20T05:10:38;102526.16;;;9.16;100.00
42591;BME280;28218;53.342;-6.216;2023-04-20T05:13:06;102538.13;;;9.20;100.00
42591;BME280;28218;53.342;-6.216;2023-04-20T05:15:35;102537.41;;;9.18;100.00
42591;BME280;28218;53.342;-6.216;2023-04-20T05:18:03;102544.97;;;9.23;100.00
42591;BME280;28218;53.342;-6.216;2023-04-20T05:20:32;102541.59;;;9.21;100.00
42591;BME280;28218;53.342;-6.216;2023-04-20T05:23:01;102547.69;;;9.21;100.00
42591;BME280;28218;53.342;-6.216;2023-04-20T05:25:30;102543.50;;;9.19;100.00
42591;BME280;28218;53.342;-6.216;2023-04-20T05:27:59;102538.47;;;9.16;100.00
42591;BME280;28218;53.342;-6.216;2023-04-20T05:30:27;102534.88;;;9.17;100.00
42591;BME280;28218;53.342;-6.216;2023-04-20T05:32:56;102530.50;;;9.17;100.00
42591;BME280;28218;53.342;-6.216;2023-04-20T05:35:24;102529.63;;;9.17;100.00
42591;BME280;28218;53.342;-6.216;2023-04-20T05:37:53;102535.97;;;9.14;100.00
42591;BME280;28218;53.342;-6.216;2023-04-20T05:40:22;102534.38;;;9.12;100.00
42591;BME280;28218;53.342;-6.216;2023-04-20T05:42:51;102532.84;;;9.09;100.00
42591;BME280;28218;53.342;-6.216;2023-04-20T05:45:19;102534.16;;;9.15;100.00
42591;BME280;28218;53.342;-6.216;2023-04-20T05:47:54;102540.75;;;9.20;100.00
42591;BME280;28218;53.342;-6.216;2023-04-20T05:50:23;102534.03;;;9.16;100.00
42591;BME280;28218;53.342;-6.216;2023-04-20T05:52:52;102541.22;;;9.14;100.00
42591;BME280;28218;53.342;-6.216;2023-04-20T05:55:22;102537.84;;;9.12;100.00
42591;BME280;28218;53.342;-6.216;2023-04-20T05:57:51;102556.16;;;9.14;100.00
42591;BME280;28218;53.342;-6.216;2023-04-20T06:00:20;102562.97;;;9.16;100.00
42591;BME280;28218;53.342;-6.216;2023-04-20T06:02:52;102561.44;;;9.14;100.00
42591;BME280;28218;53.342;-6.216;2023-04-20T06:05:21;102563.31;;;9.12;100.00
42591;BME280;28218;53.342;-6.216;2023-04-20T06:07:49;102557.22;;;9.11;100.00
42591;BME280;28218;53.342;-6.216;2023-04-20T06:10:19;102554.72;;;9.10;100.00
42591;BME280;28218;53.342;-6.216;2023-04-20T06:12:48;102559.00;;;9.11;100.00
42591;BME280;28218;53.342;-6.216;2023-04-20T06:15:18;102565.94;;;9.12;100.00
42591;BME280;28218;53.342;-6.216;2023-04-20T06:17:48;102559.63;;;9.14;100.00
42591;BME280;28218;53.342;-6.216;2023-04-20T06:20:16;102568.13;;;9.18;100.00
42591;BME280;28218;53.342;-6.216;2023-04-20T06:22:45;102560.97;;;9.20;100.00
42591;BME280;28218;53.342;-6.216;2023-04-20T06:25:14;102561.59;;;9.24;100.00
42591;BME280;28218;53.342;-6.216;2023-04-20T06:27:42;102552.59;;;9.26;100.00
42591;BME280;28218;53.342;-6.216;2023-04-20T06:30:13;102551.44;;;9.30;100.00
42591;BME280;28218;53.342;-6.216;2023-04-20T06:32:42;102537.31;;;9.31;100.00
42591;BME280;28218;53.342;-6.216;2023-04-20T06:35:10;102548.56;;;9.33;100.00
42591;BME280;28218;53.342;-6.216;2023-04-20T06:37:38;102539.59;;;9.36;100.00
42591;BME280;28218;53.342;-6.216;2023-04-20T06:40:07;102547.28;;;9.39;100.00
42591;BME280;28218;53.342;-6.216;2023-04-20T06:42:35;102545.47;;;9.39;100.00
42591;BME280;28218;53.342;-6.216;2023-04-20T06:45:05;102553.72;;;9.35;100.00
42591;BME280;28218;53.342;-6.216;2023-04-20T06:47:35;102556.97;;;9.38;100.00
42591;BME280;28218;53.342;-6.216;2023-04-20T06:50:05;102567.84;;;9.45;100.00
42591;BME280;28218;53.342;-6.216;2023-04-20T06:52:36;102565.97;;;9.47;100.00
42591;BME280;28218;53.342;-6.216;2023-04-20T06:55:10;102569.41;;;9.47;100.00
42591;BME280;28218;53.342;-6.216;2023-04-20T06:57:39;102559.84;;;9.46;100.00
42591;BME280;28218;53.342;-6.216;2023-04-20T07:00:10;102554.09;;;9.41;100.00
42591;BME280;28218;53.342;-6.216;2023-04-20T07:02:44;102545.38;;;9.52;100.00
42591;BME280;28218;53.342;-6.216;2023-04-20T07:05:13;102549.69;;;9.53;100.00
42591;BME280;28218;53.342;-6.216;2023-04-20T07:07:44;102564.44;;;9.56;100.00
42591;BME280;28218;53.342;-6.216;2023-04-20T07:10:13;102564.66;;;9.64;100.00
42591;BME280;28218;53.342;-6.216;2023-04-20T07:12:46;102563.97;;;9.73;100.00
42591;BME280;28218;53.342;-6.216;2023-04-20T07:15:15;102571.88;;;9.84;100.00
42591;BME280;28218;53.342;-6.216;2023-04-20T07:17:45;102558.00;;;9.93;100.00
42591;BME280;28218;53.342;-6.216;2023-04-20T07:20:13;102564.38;;;10.02;100.00
42591;BME280;28218;53.342;-6.216;2023-04-20T07:22:41;102562.56;;;10.14;100.00
42591;BME280;28218;53.342;-6.216;2023-04-20T07:25:10;102567.75;;;10.27;100.00
42591;BME280;28218;53.342;-6.216;2023-04-20T07:27:39;102557.78;;;10.30;100.00
42591;BME280;28218;53.342;-6.216;2023-04-20T07:30:09;102562.09;;;10.42;100.00
42591;BME280;28218;53.342;-6.216;2023-04-20T07:32:38;102570.22;;;10.51;100.00
42591;BME280;28218;53.342;-6.216;2023-04-20T07:35:09;102565.19;;;10.59;100.00
42591;BME280;28218;53.342;-6.216;2023-04-20T07:37:38;102560.97;;;10.56;100.00
42591;BME280;28218;53.342;-6.216;2023-04-20T07:40:07;102560.84;;;10.58;100.00
42591;BME280;28218;53.342;-6.216;2023-04-20T07:42:36;102569.00;;;10.66;100.00
42591;BME280;28218;53.342;-6.216;2023-04-20T07:45:05;102563.94;;;10.74;100.00
42591;BME280;28218;53.342;-6.216;2023-04-20T07:47:34;102566.81;;;10.82;100.00
42591;BME280;28218;53.342;-6.216;2023-04-20T07:50:04;102569.69;;;10.79;100.00
42591;BME280;28218;53.342;-6.216;2023-04-20T07:52:34;102576.13;;;10.86;100.00
42591;BME280;28218;53.342;-6.216;2023-04-20T07:55:03;102566.38;;;10.98;100.00
42591;BME280;28218;53.342;-6.216;2023-04-20T07:57:33;102568.25;;;11.07;100.00
42591;BME280;28218;53.342;-6.216;2023-04-20T08:00:03;102554.94;;;11.09;100.00
42591;BME280;28218;53.342;-6.216;2023-04-20T08:02:32;102558.31;;;11.11;100.00
42591;BME280;28218;53.342;-6.216;2023-04-20T08:05:01;102563.81;;;11.08;100.00
42591;BME280;28218;53.342;-6.216;2023-04-20T08:07:30;102575.34;;;11.07;100.00
42591;BME280;28218;53.342;-6.216;2023-04-20T08:10:00;102591.34;;;11.15;100.00
42591;BME280;28218;53.342;-6.216;2023-04-20T08:12:28;102588.47;;;11.18;100.00
42591;BME280;28218;53.342;-6.216;2023-04-20T08:14:59;102591.13;;;11.18;100.00
42591;BME280;28218;53.342;-6.216;2023-04-20T08:17:30;102594.09;;;11.24;100.00
42591;BME280;28218;53.342;-6.216;2023-04-20T08:19:59;102586.38;;;11.33;100.00
42591;BME280;28218;53.342;-6.216;2023-04-20T08:22:28;102593.91;;;11.37;100.00
42591;BME280;28218;53.342;-6.216;2023-04-20T08:24:56;102589.06;;;11.42;100.00
42591;BME280;28218;53.342;-6.216;2023-04-20T08:27:26;102601.19;;;11.45;100.00
42591;BME280;28218;53.342;-6.216;2023-04-20T08:29:56;102610.25;;;11.52;100.00
42591;BME280;28218;53.342;-6.216;2023-04-20T08:32:24;102596.94;;;11.54;100.00
42591;BME280;28218;53.342;-6.216;2023-04-20T08:34:53;102601.72;;;11.60;100.00
42591;BME280;28218;53.342;-6.216;2023-04-20T08:37:22;102601.47;;;11.63;100.00
42591;BME280;28218;53.342;-6.216;2023-04-20T08:39:51;102609.31;;;11.74;100.00
42591;BME280;28218;53.342;-6.216;2023-04-20T08:42:19;102599.81;;;11.71;100.00
42591;BME280;28218;53.342;-6.216;2023-04-20T08:44:49;102604.25;;;11.82;100.00
42591;BME280;28218;53.342;-6.216;2023-04-20T08:47:19;102607.47;;;11.86;100.00
42591;BME280;28218;53.342;-6.216;2023-04-20T08:49:51;102607.34;;;11.87;100.00
42591;BME280;28218;53.342;-6.216;2023-04-20T08:52:20;102606.63;;;11.85;100.00
42591;BME280;28218;53.342;-6.216;2023-04-20T08:54:48;102616.41;;;11.94;100.00
42591;BME280;28218;53.342;-6.216;2023-04-20T08:57:23;102605.38;;;11.89;100.00
42591;BME280;28218;53.342;-6.216;2023-04-20T08:59:53;102614.19;;;11.99;100.00
42591;BME280;28218;53.342;-6.216;2023-04-20T09:02:23;102603.13;;;12.06;100.00
42591;BME280;28218;53.342;-6.216;2023-04-20T09:05:00;102604.97;;;12.15;100.00
42591;BME280;28218;53.342;-6.216;2023-04-20T09:07:28;102611.22;;;12.14;100.00
42591;BME280;28218;53.342;-6.216;2023-04-20T09:09:57;102605.13;;;12.23;100.00
42591;BME280;28218;53.342;-6.216;2023-04-20T09:12:26;102601.56;;;12.34;100.00
42591;BME280;28218;53.342;-6.216;2023-04-20T09:14:56;102601.88;;;12.40;100.00
42591;BME280;28218;53.342;-6.216;2023-04-20T09:17:32;102597.00;;;12.45;100.00
42591;BME280;28218;53.342;-6.216;2023-04-20T09:20:00;102612.19;;;12.43;100.00
42591;BME280;28218;53.342;-6.216;2023-04-20T09:22:31;102607.47;;;12.47;100.00
42591;BME280;28218;53.342;-6.216;2023-04-20T09:25:11;102606.63;;;12.56;100.00
42591;BME280;28218;53.342;-6.216;2023-04-20T09:27:39;102616.38;;;12.56;100.00
42591;BME280;28218;53.342;-6.216;2023-04-20T09:30:12;102607.78;;;12.63;100.00
42591;BME280;28218;53.342;-6.216;2023-04-20T09:32:40;102612.09;;;12.74;100.00
42591;BME280;28218;53.342;-6.216;2023-04-20T09:35:09;102613.69;;;12.86;100.00
42591;BME280;28218;53.342;-6.216;2023-04-20T09:37:46;102607.53;;;12.76;100.00
42591;BME280;28218;53.342;-6.216;2023-04-20T09:40:15;102608.78;;;12.82;100.00
42591;BME280;28218;53.342;-6.216;2023-04-20T09:42:43;102605.31;;;12.91;100.00
42591;BME280;28218;53.342;-6.216;2023-04-20T09:45:14;102600.88;;;12.91;100.00
42591;BME280;28218;53.342;-6.216;2023-04-20T09:47:42;102604.75;;;12.87;100.00
42591;BME280;28218;53.342;-6.216;2023-04-20T09:50:12;102596.41;;;12.92;100.00
42591;BME280;28218;53.342;-6.216;2023-04-20T09:52:59;102604.22;;;13.03;100.00
42591;BME280;28218;53.342;-6.216;2023-04-20T09:55:29;102602.28;;;13.15;100.00
42591;BME280;28218;53.342;-6.216;2023-04-20T09:57:58;102592.84;;;13.32;100.00
42591;BME280;28218;53.342;-6.216;2023-04-20T10:00:30;102603.13;;;13.44;100.00
42591;BME280;28218;53.342;-6.216;2023-04-20T10:02:58;102586.69;;;13.50;100.00
42591;BME280;28218;53.342;-6.216;2023-04-20T10:05:33;102590.59;;;13.56;100.00
42591;BME280;28218;53.342;-6.216;2023-04-20T10:08:03;102582.22;;;13.61;100.00
42591;BME280;28218;53.342;-6.216;2023-04-20T10:10:42;102603.06;;;13.73;100.00
42591;BME280;28218;53.342;-6.216;2023-04-20T10:13:11;102596.13;;;13.72;100.00
42591;BME280;28218;53.342;-6.216;2023-04-20T10:15:41;102601.09;;;13.85;100.00
42591;BME280;28218;53.342;-6.216;2023-04-20T10:18:17;102589.25;;;13.89;100.00
42591;BME280;28218;53.342;-6.216;2023-04-20T10:20:47;102593.97;;;13.95;100.00
42591;BME280;28218;53.342;-6.216;2023-04-20T10:23:15;102593.78;;;14.06;100.00
42591;BME280;28218;53.342;-6.216;2023-04-20T10:25:54;102589.03;;;14.10;100.00
42591;BME280;28218;53.342;-6.216;2023-04-20T10:28:23;102593.25;;;14.03;100.00
42591;BME280;28218;53.342;-6.216;2023-04-20T10:30:53;102590.41;;;14.14;100.00
42591;BME280;28218;53.342;-6.216;2023-04-20T10:33:22;102596.25;;;14.18;100.00
42591;BME280;28218;53.342;-6.216;2023-04-20T10:35:53;102594.75;;;14.05;100.00
42591;BME280;28218;53.342;-6.216;2023-04-20T10:38:26;102599.97;;;13.97;100.00
42591;BME280;28218;53.342;-6.216;2023-04-20T10:40:55;102593.38;;;14.01;100.00
42591;BME280;28218;53.342;-6.216;2023-04-20T10:43:23;102591.03;;;13.98;100.00
42591;BME280;28218;53.342;-6.216;2023-04-20T10:45:53;102590.69;;;14.11;100.00
42591;BME280;28218;53.342;-6.216;2023-04-20T10:48:21;102583.69;;;14.20;100.00
42591;BME280;28218;53.342;-6.216;2023-04-20T10:50:49;102585.44;;;14.29;100.00
42591;BME280;28218;53.342;-6.216;2023-04-20T10:53:22;102597.97;;;14.37;100.00
42591;BME280;28218;53.342;-6.216;2023-04-20T10:55:57;102591.91;;;14.44;100.00
42591;BME280;28218;53.342;-6.216;2023-04-20T10:58:25;102584.81;;;14.45;100.00
42591;BME280;28218;53.342;-6.216;2023-04-20T11:00:59;102579.09;;;14.49;100.00
42591;BME280;28218;53.342;-6.216;2023-04-20T11:03:28;102579.09;;;14.49;100.00
42591;BME280;28218;53.342;-6.216;2023-04-20T11:05:57;102578.06;;;14.60;100.00
42591;BME280;28218;53.342;-6.216;2023-04-20T11:08:38;102573.69;;;14.69;100.00
42591;BME280;28218;53.342;-6.216;2023-04-20T11:11:17;102584.81;;;14.72;100.00
42591;BME280;28218;53.342;-6.216;2023-04-20T11:13:46;102575.25;;;14.62;100.00
42591;BME280;28218;53.342;-6.216;2023-04-20T11:16:19;102581.75;;;14.49;100.00
42591;BME280;28218;53.342;-6.216;2023-04-20T11:18:49;102576.00;;;14.44;100.00
42591;BME280;28218;53.342;-6.216;2023-04-20T11:21:18;102574.66;;;14.40;100.00
42591;BME280;28218;53.342;-6.216;2023-04-20T11:23:48;102573.34;;;14.44;100.00
42591;BME280;28218;53.342;-6.216;2023-04-20T11:26:19;102564.16;;;14.48;100.00
42591;BME280;28218;53.342;-6.216;2023-04-20T11:28:51;102575.16;;;14.53;100.00
42591;BME280;28218;53.342;-6.216;2023-04-20T11:31:23;102567.09;;;14.45;100.00
42591;BME280;28218;53.342;-6.216;2023-04-20T11:33:54;102563.22;;;14.40;100.00
42591;BME280;28218;53.342;-6.216;2023-04-20T11:36:23;102556.91;;;14.50;100.00
42591;BME280;28218;53.342;-6.216;2023-04-20T11:38:52;102555.00;;;14.61;100.00
42591;BME280;28218;53.342;-6.216;2023-04-20T11:41:21;102555.31;;;14.57;100.00
42591;BME280;28218;53.342;-6.216;2023-04-20T11:43:49;102550.47;;;14.71;100.00
42591;BME280;28218;53.342;-6.216;2023-04-20T11:46:18;102553.03;;;14.63;100.00
42591;BME280;28218;53.342;-6.216;2023-04-20T11:48:48;102550.25;;;14.64;100.00
42591;BME280;28218;53.342;-6.216;2023-04-20T11:51:16;102548.81;;;14.70;100.00
42591;BME280;28218;53.342;-6.216;2023-04-20T11:53:44;102553.44;;;14.86;100.00
42591;BME280;28218;53.342;-6.216;2023-04-20T11:56:13;102539.56;;;14.92;100.00
42591;BME280;28218;53.342;-6.216;2023-04-20T11:58:41;102537.44;;;14.95;100.00
42591;BME280;28218;53.342;-6.216;2023-04-20T12:01:10;102533.94;;;14.95;100.00
42591;BME280;28218;53.342;-6.216;2023-04-20T12:03:39;102533.41;;;14.91;100.00
42591;BME280;28218;53.342;-6.216;2023-04-20T12:06:09;102544.47;;;14.87;100.00
42591;BME280;28218;53.342;-6.216;2023-04-20T12:08:37;102539.16;;;14.87;100.00
42591;BME280;28218;53.342;-6.216;2023-04-20T12:11:05;102537.06;;;14.90;100.00
42591;BME280;28218;53.342;-6.216;2023-04-20T12:13:33;102542.72;;;14.95;100.00
42591;BME280;28218;53.342;-6.216;2023-04-20T12:16:02;102534.94;;;14.94;100.00
42591;BME280;28218;53.342;-6.216;2023-04-20T12:18:30;102533.72;;;14.88;100.00
42591;BME280;28218;53.342;-6.216;2023-04-20T12:20:58;102536.69;;;14.85;100.00
42591;BME280;28218;53.342;-6.216;2023-04-20T12:23:28;102544.81;;;14.83;100.00
42591;BME280;28218;53.342;-6.216;2023-04-20T12:25:56;102544.25;;;14.80;100.00
42591;BME280;28218;53.342;-6.216;2023-04-20T12:28:27;102548.94;;;14.86;100.00
42591;BME280;28218;53.342;-6.216;2023-04-20T12:30:55;102540.94;;;14.78;100.00
42591;BME280;28218;53.342;-6.216;2023-04-20T12:33:24;102538.94;;;14.98;100.00
42591;BME280;28218;53.342;-6.216;2023-04-20T12:35:52;102546.53;;;15.11;100.00
42591;BME280;28218;53.342;-6.216;2023-04-20T12:38:20;102541.63;;;15.24;100.00
42591;BME280;28218;53.342;-6.216;2023-04-20T12:40:50;102536.09;;;15.35;100.00
42591;BME280;28218;53.342;-6.216;2023-04-20T12:43:19;102539.69;;;15.26;100.00
42591;BME280;28218;53.342;-6.216;2023-04-20T12:45:47;102544.66;;;15.29;100.00